Time;durP1;ratioP1;P1;durP2;ratioP2;P2;SDS_P1;SDS_P2;PMS_P1;PMS_P2;Temp;Humidity;BMP_temperature;BMP_pressure;BME280_temperature;BME280_humidity;BME280_pressure;Samples;Min_cycle;Max_cycle;Signal;HPM_P1;HPM_P2
2021/01/12 00:02:21;;;;;;;2.85;1.38;;;;;;;17.27;51.74;100759.59;6298854;22;20003;-80
2021/01/12 00:04:48;;;;;;;3.17;1.10;;;;;;;17.28;51.86;100755.25;6315652;22;20003;-80
2021/01/12 00:07:14;;;;;;;5.15;1.38;;;;;;;17.26;51.75;100750.06;6284495;22;20034;-79
2021/01/12 00:09:40;;;;;;;2.83;1.30;;;;;;;17.25;51.53;100740.53;6283819;22;19999;-78
2021/01/12 00:12:06;;;;;;;4.03;1.55;;;;;;;17.26;51.70;100734.44;6283315;22;20061;-77
2021/01/12 00:14:32;;;;;;;2.28;1.05;;;;;;;17.25;51.80;100732.72;6256997;22;20094;-78
2021/01/12 00:17:06;;;;;;;3.30;1.30;;;;;;;17.26;51.63;100728.38;6260101;22;20082;-78
2021/01/12 00:19:32;;;;;;;2.80;1.30;;;;;;;17.26;51.60;100721.44;6283957;22;20006;-80
2021/01/12 00:21:59;;;;;;;2.47;1.20;;;;;;;17.26;51.45;100715.38;6286743;22;20015;-80
2021/01/12 00:24:25;;;;;;;3.83;1.20;;;;;;;17.26;51.65;100707.59;6286268;22;20003;-79
2021/01/12 00:26:51;;;;;;;3.28;1.40;;;;;;;17.26;51.60;100707.59;6312538;22;20014;-80
2021/01/12 00:29:16;;;;;;;2.67;1.27;;;;;;;17.26;51.52;100699.78;6313363;22;20004;-79
2021/01/12 00:31:43;;;;;;;1.88;1.13;;;;;;;17.24;51.60;100694.59;6314298;22;20007;-79
2021/01/12 00:34:09;;;;;;;2.42;1.20;;;;;;;17.23;51.31;100677.28;6312780;22;20488;-80
2021/01/12 00:36:50;;;;;;;2.95;1.30;;;;;;;17.24;51.57;100681.59;6286554;22;20010;-80
2021/01/12 00:39:16;;;;;;;2.10;1.15;;;;;;;17.24;51.52;100683.34;6311827;22;20350;-79
2021/01/12 00:41:45;;;;;;;2.97;1.17;;;;;;;17.24;51.45;100680.72;6313463;22;20003;-79
2021/01/12 00:44:11;;;;;;;3.95;1.30;;;;;;;17.25;51.52;100677.28;6284350;22;20026;-78
2021/01/12 00:46:36;;;;;;;2.33;1.10;;;;;;;17.25;51.43;100672.06;6282239;22;20011;-78
2021/01/12 00:49:02;;;;;;;3.33;1.20;;;;;;;17.21;51.56;100666.03;6255910;22;20010;-78
2021/01/12 00:51:38;;;;;;;3.45;1.65;;;;;;;17.25;51.52;100675.53;6257617;22;20011;-78
2021/01/12 00:54:05;;;;;;;2.45;1.50;;;;;;;17.25;51.48;100653.88;6283021;22;20015;-78
2021/01/12 00:56:31;;;;;;;3.10;1.30;;;;;;;17.24;51.49;100655.56;6312517;22;20008;-80
2021/01/12 00:58:56;;;;;;;2.88;1.15;;;;;;;17.24;51.44;100652.13;6311816;22;20006;-78
2021/01/12 01:01:21;;;;;;;3.50;1.20;;;;;;;17.24;51.58;100646.94;6287865;22;20007;-79
2021/01/12 01:03:47;;;;;;;2.85;1.35;;;;;;;17.23;51.46;100638.28;6286922;22;20007;-79
2021/01/12 01:06:12;;;;;;;2.53;1.27;;;;;;;17.23;51.48;100640.88;6287245;22;20011;-80
2021/01/12 01:08:37;;;;;;;2.53;1.20;;;;;;;17.22;51.36;100633.97;6260830;22;20417;-80
2021/01/12 01:11:03;;;;;;;3.30;1.30;;;;;;;17.24;51.45;100631.31;6260838;22;20042;-79
2021/01/12 01:13:29;;;;;;;2.72;1.23;;;;;;;17.23;51.21;100638.28;6312817;22;20038;-79
2021/01/12 01:15:54;;;;;;;3.78;1.35;;;;;;;17.24;51.37;100632.16;6313131;22;20005;-80
2021/01/12 01:18:19;;;;;;;2.28;0.95;;;;;;;17.23;51.33;100629.63;6285314;22;20045;-77
2021/01/12 01:20:45;;;;;;;3.03;1.27;;;;;;;17.21;51.25;100619.22;6258968;22;20010;-77
2021/01/12 01:23:10;;;;;;;3.63;1.20;;;;;;;17.24;51.36;100615.72;6259255;22;20446;-75
2021/01/12 01:25:36;;;;;;;2.30;1.10;;;;;;;17.23;51.51;100617.47;6284819;22;20041;-76
2021/01/12 01:28:01;;;;;;;2.45;1.15;;;;;;;17.22;51.36;100604.47;6258290;22;20007;-76
2021/01/12 01:30:27;;;;;;;3.60;1.15;;;;;;;17.22;51.30;100613.16;6258061;22;20014;-78
2021/01/12 01:32:52;;;;;;;2.97;1.40;;;;;;;17.22;51.18;100607.97;6283811;22;20008;-77
2021/01/12 01:35:17;;;;;;;2.42;1.15;;;;;;;17.22;51.36;100613.16;6297396;22;20338;-77
2021/01/12 01:37:45;;;;;;;2.10;1.02;;;;;;;17.24;51.51;100607.91;6289850;22;20333;-76
2021/01/12 01:40:14;;;;;;;2.20;1.10;;;;;;;17.22;51.56;100615.75;6260497;22;20057;-77
2021/01/12 01:42:39;;;;;;;3.33;1.20;;;;;;;17.22;51.44;100610.56;6311921;22;20430;-77
2021/01/12 01:45:08;;;;;;;3.53;1.42;;;;;;;17.20;51.26;100609.72;6257788;22;20018;-76
2021/01/12 01:47:34;;;;;;;2.58;1.00;;;;;;;17.21;51.25;100611.41;6310666;22;19999;-77
2021/01/12 01:50:00;;;;;;;2.75;1.23;;;;;;;17.21;51.25;100611.41;6309505;22;20007;-77
2021/01/12 01:52:26;;;;;;;3.55;1.27;;;;;;;17.22;51.40;100607.06;6282835;22;20018;-77
2021/01/12 01:54:56;;;;;;;2.70;1.20;;;;;;;17.22;51.40;100612.28;6257944;22;20003;-76
2021/01/12 01:57:22;;;;;;;2.72;1.25;;;;;;;17.22;51.43;100601.88;6283805;22;20388;-78
2021/01/12 01:59:47;;;;;;;2.58;1.23;;;;;;;17.21;51.37;100600.16;6309484;22;20030;-76
2021/01/12 02:02:13;;;;;;;2.75;1.10;;;;;;;17.21;51.31;100605.38;6245515;22;20030;-76
2021/01/12 02:04:39;;;;;;;2.67;1.08;;;;;;;17.20;51.28;100598.44;6290813;22;20003;-76
2021/01/12 02:07:07;;;;;;;3.40;1.38;;;;;;;17.20;51.40;100603.63;6317401;22;20027;-77
2021/01/12 02:09:45;;;;;;;2.45;1.02;;;;;;;17.20;51.24;100594.09;6317579;22;20426;-76
2021/01/12 02:12:20;;;;;;;2.90;1.10;;;;;;;17.20;51.21;100598.44;6287955;22;20099;-76
2021/01/12 02:14:47;;;;;;;3.10;1.40;;;;;;;17.20;51.36;100596.72;6313621;22;20338;-76
2021/01/12 02:17:13;;;;;;;3.03;0.98;;;;;;;17.20;51.39;100588.03;6267777;22;20003;-76
2021/01/12 02:19:39;;;;;;;2.80;1.10;;;;;;;17.20;51.37;100596.72;6322259;22;20015;-76
2021/01/12 02:22:08;;;;;;;3.83;1.30;;;;;;;17.20;51.28;100588.03;6300317;22;20003;-79
2021/01/12 02:24:35;;;;;;;3.08;1.20;;;;;;;17.19;51.25;100584.56;6302928;22;20011;-76
2021/01/12 02:27:01;;;;;;;2.67;1.15;;;;;;;17.19;51.38;100594.97;6296079;22;20030;-78
2021/01/12 02:29:27;;;;;;;2.08;0.98;;;;;;;17.20;51.63;100582.81;6299766;22;20015;-76
2021/01/12 02:31:52;;;;;;;3.13;1.20;;;;;;;17.21;51.11;100589.75;6267259;22;20008;-76
2021/01/12 02:34:19;;;;;;;3.17;1.33;;;;;;;17.18;51.46;100580.25;6269417;22;20034;-76
2021/01/12 02:36:46;;;;;;;2.70;1.38;;;;;;;17.19;51.31;100584.56;6242804;22;20455;-76
2021/01/12 02:39:13;;;;;;;2.35;1.05;;;;;;;17.19;51.36;100575.91;6247540;22;20272;-77
2021/01/12 02:41:39;;;;;;;4.50;1.30;;;;;;;17.19;51.00;100584.56;6261741;23;20012;-76
2021/01/12 02:44:06;;;;;;;2.85;1.27;;;;;;;17.16;51.37;100565.53;6267949;22;20082;-80
2021/01/12 02:46:31;;;;;;;2.30;1.10;;;;;;;17.19;51.28;100568.97;6298964;22;19999;-78
2021/01/12 02:48:57;;;;;;;2.33;1.10;;;;;;;17.18;51.24;100561.19;6236485;22;20008;-79
2021/01/12 02:51:22;;;;;;;3.35;1.17;;;;;;;17.19;51.26;100561.16;6290659;22;20007;-79
2021/01/12 02:53:47;;;;;;;2.72;1.20;;;;;;;17.18;51.47;100561.19;6238042;22;20023;-78
2021/01/12 02:56:13;;;;;;;3.75;1.27;;;;;;;17.18;51.58;100561.19;6296481;22;20000;-76
2021/01/12 02:58:38;;;;;;;2.70;1.00;;;;;;;17.17;51.20;100547.31;6265436;22;20063;-77
2021/01/12 03:01:04;;;;;;;2.03;1.23;;;;;;;17.19;51.32;100549.91;6242492;22;20518;-76
2021/01/12 03:03:29;;;;;;;3.15;1.30;;;;;;;17.17;51.40;100546.47;6292138;22;19999;-77
2021/01/12 03:05:55;;;;;;;2.78;1.00;;;;;;;17.18;51.25;100527.38;6263275;22;20004;-77
2021/01/12 03:08:21;;;;;;;3.22;1.20;;;;;;;17.18;51.15;100524.78;6266692;22;20031;-76
2021/01/12 03:10:46;;;;;;;3.90;1.00;;;;;;;17.17;51.41;100533.47;6267671;22;20010;-76
2021/01/12 03:13:12;;;;;;;3.28;1.30;;;;;;;17.17;51.08;100531.72;6235861;23;20012;-77
2021/01/12 03:15:38;;;;;;;2.72;1.10;;;;;;;17.17;51.27;100520.47;6260251;23;20007;-76
2021/01/12 03:18:05;;;;;;;4.40;1.00;;;;;;;17.17;51.26;100523.91;6258425;23;20004;-77
2021/01/12 03:20:30;;;;;;;2.60;1.02;;;;;;;17.15;51.35;100515.28;6260674;23;20400;-76
2021/01/12 03:22:56;;;;;;;2.72;1.15;;;;;;;17.16;51.42;100522.22;6236476;23;20015;-77
2021/01/12 03:25:21;;;;;;;2.03;1.10;;;;;;;17.17;51.38;100510.06;6237601;23;20004;-79
2021/01/12 03:27:47;;;;;;;2.33;1.08;;;;;;;17.17;51.30;100518.72;6230594;23;20000;-78
2021/01/12 03:30:13;;;;;;;2.53;1.00;;;;;;;17.17;51.24;100504.88;6262032;23;20035;-78
2021/01/12 03:32:39;;;;;;;4.07;1.10;;;;;;;17.16;51.15;100506.63;6235926;23;20087;-79
2021/01/12 03:35:06;;;;;;;1.75;1.00;;;;;;;17.16;51.34;100510.94;6257405;23;20004;-79
2021/01/12 03:37:31;;;;;;;2.58;1.00;;;;;;;17.16;51.48;100497.94;6201172;23;20012;-78
2021/01/12 03:39:56;;;;;;;2.72;1.00;;;;;;;17.15;51.19;100491.88;6254455;23;20494;-79
2021/01/12 03:42:21;;;;;;;5.28;1.00;;;;;;;17.15;51.34;100480.63;6256521;23;20026;-78
2021/01/12 03:44:47;;;;;;;2.35;1.10;;;;;;;17.15;51.28;100484.06;6203092;23;20095;-80
2021/01/12 03:49:42;;;;;;;1.70;0.80;;;;;;;17.15;51.29;100488.44;6227341;23;20025;-77
2021/01/12 03:52:07;;;;;;;2.95;1.05;;;;;;;17.15;51.49;100497.06;6155668;23;20017;-76
2021/01/12 03:54:32;;;;;;;2.50;1.02;;;;;;;17.15;51.40;100493.63;6154907;23;20012;-77
2021/01/12 03:56:58;;;;;;;2.38;1.15;;;;;;;17.15;51.48;100491.88;6200519;23;20009;-77
2021/01/12 03:59:23;;;;;;;2.38;1.08;;;;;;;17.15;51.20;100484.06;6228036;23;20428;-76
2021/01/12 04:01:48;;;;;;;1.95;0.80;;;;;;;17.15;51.30;100493.63;6196647;23;20043;-76
2021/01/12 04:04:14;;;;;;;3.40;1.10;;;;;;;17.14;51.44;100484.97;6200888;23;20008;-76
2021/01/12 04:06:41;;;;;;;2.55;0.98;;;;;;;17.14;51.60;100481.53;6148114;23;20019;-76
2021/01/12 04:09:07;;;;;;;2.20;0.85;;;;;;;17.13;51.48;100469.38;6200998;23;20012;-76
2021/01/12 04:11:34;;;;;;;2.17;0.95;;;;;;;17.13;51.39;100469.38;6157894;23;20012;-76
2021/01/12 04:14:01;;;;;;;3.40;1.10;;;;;;;17.14;51.48;100471.13;6204103;23;20431;-76
2021/01/12 04:16:26;;;;;;;2.97;1.00;;;;;;;17.13;51.30;100461.59;6202911;23;20092;-76
2021/01/12 04:18:52;;;;;;;2.72;1.10;;;;;;;17.14;51.37;100452.91;6227816;23;20004;-76
2021/01/12 04:21:18;;;;;;;2.88;1.00;;;;;;;17.13;51.43;100464.19;6201943;23;20011;-75
2021/01/12 04:23:44;;;;;;;2.95;0.80;;;;;;;17.12;51.60;100465.94;6205739;23;20026;-76
2021/01/12 04:26:10;;;;;;;2.65;1.00;;;;;;;17.13;51.68;100461.59;6221611;23;20410;-76
2021/01/12 04:28:37;;;;;;;3.88;1.00;;;;;;;17.13;51.32;100456.38;6223262;23;20009;-76
2021/01/12 04:31:03;;;;;;;2.75;1.00;;;;;;;17.12;51.36;100444.28;6197963;23;20038;-75
2021/01/12 04:33:30;;;;;;;3.45;1.20;;;;;;;17.11;51.52;100443.41;6251823;23;20012;-78
2021/01/12 04:35:55;;;;;;;1.90;0.85;;;;;;;17.12;51.26;100445.13;6226664;23;20067;-78
2021/01/12 04:38:20;;;;;;;3.95;1.13;;;;;;;17.13;51.21;100440.78;6264127;23;20004;-78
2021/01/12 04:40:46;;;;;;;2.05;0.90;;;;;;;17.11;51.49;100445.16;6246437;23;20052;-79
2021/01/12 04:43:12;;;;;;;2.42;0.93;;;;;;;17.12;51.27;100436.47;6223942;23;20012;-80
2021/01/12 04:45:38;;;;;;;2.38;1.08;;;;;;;17.09;51.79;100442.56;6222674;23;20008;-78
2021/01/12 04:48:04;;;;;;;1.80;1.00;;;;;;;17.11;51.52;100439.94;6249220;23;20087;-79
2021/01/12 04:50:30;;;;;;;2.53;0.93;;;;;;;17.11;51.20;100434.75;6196853;23;20008;-79
2021/01/12 04:52:55;;;;;;;2.30;0.88;;;;;;;17.11;51.52;100442.53;6197417;23;20015;-81
2021/01/12 04:55:21;;;;;;;2.63;0.90;;;;;;;17.11;51.52;100445.16;6221140;23;20008;-79
2021/01/12 04:57:48;;;;;;;2.60;1.08;;;;;;;17.09;51.45;100439.94;6247385;23;20031;-79
2021/01/12 05:00:17;;;;;;;2.10;0.98;;;;;;;17.10;51.39;100454.69;6248048;23;20135;-78
2021/01/12 05:02:55;;;;;;;1.45;0.80;;;;;;;17.11;51.40;100448.59;6221066;23;20027;-78
2021/01/12 05:05:20;;;;;;;1.90;1.00;;;;;;;17.10;51.36;100444.28;6247096;23;20011;-78
2021/01/12 05:07:45;;;;;;;1.05;0.70;;;;;;;17.11;51.24;100439.94;6221298;23;20107;-77
2021/01/12 05:10:12;;;;;;;2.97;1.02;;;;;;;17.10;51.42;100440.84;6220148;23;20008;-78
2021/01/12 05:12:41;;;;;;;2.35;0.90;;;;;;;17.09;51.31;100436.50;6247582;22;20304;-79
2021/01/12 05:15:09;;;;;;;1.67;0.77;;;;;;;17.10;51.21;100451.25;6247265;23;20012;-78
2021/01/12 05:17:36;;;;;;;2.20;0.90;;;;;;;17.09;51.37;100444.31;6220213;23;20003;-78
2021/01/12 05:20:03;;;;;;;3.15;0.90;;;;;;;17.09;51.30;100441.69;6224214;23;20000;-80
2021/01/12 05:22:30;;;;;;;2.30;0.90;;;;;;;17.09;51.32;100449.50;6201372;23;20008;-78
2021/01/12 05:25:19;;;;;;;2.28;0.80;;;;;;;17.08;51.32;100453.84;6224306;23;20427;-80
2021/01/12 05:27:41;;;;;;;2.38;0.90;;;;;;;17.08;51.47;100440.84;6248320;22;20008;-79
2021/01/12 05:30:09;;;;;;;1.58;0.80;;;;;;;17.08;51.26;100440.00;6246387;23;20071;-77
2021/01/12 05:32:37;;;;;;;1.95;0.85;;;;;;;17.08;51.13;100443.44;6195288;23;20011;-77
2021/01/12 05:35:05;;;;;;;2.50;0.85;;;;;;;17.08;51.18;100448.66;6246491;23;20055;-77
2021/01/12 05:37:33;;;;;;;2.15;0.80;;;;;;;17.08;51.19;100453.00;6247162;23;20004;-77
2021/01/12 05:40:02;;;;;;;2.20;0.82;;;;;;;17.08;51.39;100453.00;6220904;23;20012;-78
2021/01/12 05:42:27;;;;;;;1.90;0.73;;;;;;;17.06;51.21;100450.41;6221208;23;20137;-78
2021/01/12 05:44:53;;;;;;;2.85;0.95;;;;;;;17.06;51.36;100445.22;6221397;23;20067;-77
2021/01/12 05:47:18;;;;;;;1.83;0.80;;;;;;;17.08;51.56;100442.59;6247679;23;20000;-79
2021/01/12 05:49:44;;;;;;;2.90;0.98;;;;;;;17.07;51.36;100441.72;6221964;23;20020;-77
2021/01/12 05:52:11;;;;;;;3.08;0.73;;;;;;;17.06;51.27;100435.66;6248821;23;20010;-77
2021/01/12 05:54:37;;;;;;;2.03;0.93;;;;;;;17.08;51.31;100437.41;6222286;23;20008;-78
2021/01/12 05:57:07;;;;;;;1.60;0.70;;;;;;;17.06;51.27;100440.84;6248817;23;20325;-78
2021/01/12 05:59:37;;;;;;;1.90;0.90;;;;;;;17.06;51.54;100438.25;6197319;23;20008;-78
2021/01/12 06:02:09;;;;;;;3.30;0.90;;;;;;;17.06;50.96;100445.22;6249144;23;20047;-78
2021/01/12 06:04:35;;;;;;;2.33;0.80;;;;;;;17.05;51.29;100448.72;6252732;23;20004;-78
2021/01/12 06:07:03;;;;;;;1.75;0.80;;;;;;;17.06;51.31;100453.84;6228027;23;20066;-75
2021/01/12 06:09:28;;;;;;;2.88;0.80;;;;;;;17.05;51.34;100453.91;6219686;23;20000;-76
2021/01/12 06:11:55;;;;;;;3.95;1.10;;;;;;;17.04;51.27;100455.63;6200159;23;20019;-77
2021/01/12 06:14:23;;;;;;;1.38;0.70;;;;;;;17.06;51.28;100453.84;6246785;23;20004;-78
2021/01/12 06:16:49;;;;;;;4.40;1.15;;;;;;;17.07;51.25;100457.31;6246234;23;19996;-77
2021/01/12 06:19:20;;;;;;;3.25;1.08;;;;;;;17.05;51.42;100478.16;6272900;22;20053;-77
2021/01/12 06:21:54;;;;;;;3.58;1.10;;;;;;;17.04;51.42;100473.81;6268594;23;20000;-76
2021/01/12 06:24:37;;;;;;;6.00;1.23;;;;;;;17.04;51.46;100473.81;6269942;23;19984;-76
2021/01/12 06:27:10;;;;;;;5.07;1.20;;;;;;;17.04;51.65;100483.38;6242713;23;19992;-77
2021/01/12 06:29:36;;;;;;;4.43;1.42;;;;;;;17.04;51.49;100481.63;6269624;23;20004;-78
2021/01/12 06:32:02;;;;;;;5.40;1.20;;;;;;;17.04;51.58;100494.63;6242568;23;20004;-76
2021/01/12 06:34:28;;;;;;;4.47;1.23;;;;;;;17.05;51.65;100504.16;6268895;23;20060;-76
2021/01/12 06:36:58;;;;;;;3.78;1.30;;;;;;;17.06;51.66;100507.59;6268583;23;20000;-78
2021/01/12 06:39:38;;;;;;;4.25;1.27;;;;;;;17.06;51.76;100508.44;6257663;23;20002;-76
2021/01/12 06:42:05;;;;;;;4.75;1.30;;;;;;;17.05;51.75;100509.34;6246517;23;20027;-76
2021/01/12 06:44:32;;;;;;;5.60;1.58;;;;;;;17.03;51.61;100513.72;6221132;23;20016;-79
2021/01/12 06:46:58;;;;;;;3.05;1.30;;;;;;;17.05;51.88;100526.69;6222766;23;20036;-79
2021/01/12 06:49:27;;;;;;;3.05;1.15;;;;;;;17.05;51.81;100522.34;6223361;23;20454;-79
2021/01/12 06:52:01;;;;;;;2.88;1.30;;;;;;;17.05;51.93;100529.28;6251031;23;20019;-79
2021/01/12 06:54:47;;;;;;;3.05;1.30;;;;;;;17.05;51.76;100547.50;6225485;23;20045;-79
2021/01/12 06:57:21;;;;;;;4.72;1.38;;;;;;;17.06;51.82;100552.66;6224049;23;20058;-79
2021/01/12 06:59:51;;;;;;;2.95;1.17;;;;;;;17.05;51.88;100561.34;6222982;23;20015;-79
2021/01/12 07:02:31;;;;;;;5.28;1.70;;;;;;;17.06;51.76;100555.25;6223488;23;20004;-79
2021/01/12 07:04:56;;;;;;;3.63;1.20;;;;;;;17.05;52.03;100561.34;6199448;23;20023;-78
2021/01/12 07:10:14;;;;;;;2.58;0.80;;;;;;;17.06;51.75;100580.41;6251303;22;20024;-80
2021/01/12 07:15:20;;;;;;;2.72;1.30;;;;;;;17.05;51.69;100592.53;6310508;22;20019;-76
2021/01/12 07:18:04;;;;;;;3.45;1.10;;;;;;;17.05;51.75;100602.94;6313995;22;20057;-76
2021/01/12 07:20:42;;;;;;;4.30;1.30;;;;;;;17.21;51.91;100606.22;6314977;22;20007;-76
2021/01/12 07:23:11;;;;;;;3.22;1.15;;;;;;;17.29;52.04;100608.75;6312142;22;20049;-78
2021/01/12 07:33:04;;;;;;;5.55;1.40;;;;;;;17.32;52.54;100642.50;6312324;22;20087;-75
2021/01/12 07:36:04;;;;;;;2.55;0.80;;;;;;;17.29;52.59;100639.94;6228246;23;20108;-78
2021/01/12 07:47:37;;;;;;;;;;;;;;;17.32;52.60;100650.31;6256630;22;20086;-76
2021/01/12 07:50:09;;;;;;;4.30;1.30;;;;;;;17.31;52.65;100651.19;6252613;23;19915;-75
2021/01/12 07:52:39;;;;;;;3.83;1.10;;;;;;;17.31;52.57;100661.59;6197513;23;20005;-76
2021/01/12 07:55:12;;;;;;;3.40;1.10;;;;;;;17.33;52.61;100658.97;6191154;23;20009;-75
2021/01/12 07:57:42;;;;;;;5.32;1.20;;;;;;;17.32;52.69;100668.50;6145025;23;20444;-79
2021/01/12 08:03:04;;;;;;;4.03;1.20;;;;;;;17.32;52.78;100680.66;6262188;22;20012;-76
2021/01/12 08:06:41;;;;;;;2.10;0.95;;;;;;;17.33;52.71;100692.78;6223653;23;20115;-76
2021/01/12 08:17:55;;;;;;;2.03;0.88;;;;;;;17.39;52.60;100718.72;6290764;22;20020;-76
2021/01/12 08:20:44;;;;;;;2.30;0.85;;;;;;;17.40;52.71;100721.31;6251079;23;20016;-75
2021/01/12 08:41:06;;;;;;;1.60;0.70;;;;;;;17.40;52.86;100760.34;6330028;22;20011;-79
2021/01/12 08:43:37;;;;;;;2.35;1.10;;;;;;;17.42;52.65;100757.69;6264662;22;19996;-80
2021/01/12 08:46:06;;;;;;;5.05;1.00;;;;;;;17.39;52.59;100763.81;6254348;22;20016;-80
2021/01/12 08:48:32;;;;;;;2.70;1.00;;;;;;;17.41;52.45;100769.84;6273288;22;20012;-80
2021/01/12 08:50:57;;;;;;;2.90;0.70;;;;;;;17.40;52.75;100775.94;6292547;22;20015;-80
2021/01/12 08:53:28;;;;;;;2.53;1.10;;;;;;;17.42;52.69;100784.59;6277017;22;20045;-80
2021/01/12 08:56:07;;;;;;;4.72;1.10;;;;;;;17.41;52.48;100782.84;6317783;22;20022;-79
2021/01/12 08:58:35;;;;;;;2.50;0.90;;;;;;;17.46;52.64;100794.09;6300686;22;20012;-80
2021/01/12 09:01:27;;;;;;;3.22;0.90;;;;;;;17.53;52.32;100807.03;6276472;22;20027;-80
2021/01/12 09:04:10;;;;;;;2.55;0.68;;;;;;;17.52;52.38;100806.16;6293795;22;20015;-80
2021/01/12 09:06:37;;;;;;;1.92;0.80;;;;;;;17.51;52.38;100817.47;6303164;22;19995;-80
2021/01/12 09:09:11;;;;;;;2.00;1.00;;;;;;;17.44;52.45;100819.28;6307746;22;19991;-80
2021/01/12 09:11:48;;;;;;;1.65;0.80;;;;;;;17.44;52.40;100821.88;6305974;22;20003;-81
2021/01/12 09:26:03;;;;;;;2.35;0.98;;;;;;;17.45;52.38;100853.94;6333373;22;20015;-81
2021/01/12 09:32:32;;;;;;;1.30;0.77;;;;;;;17.52;52.28;100863.41;6335105;22;20046;-81
2021/01/12 09:43:39;;;;;;;1.65;0.63;;;;;;;17.67;51.78;100899.72;6270250;22;20030;-81
2021/01/12 09:48:49;;;;;;;1.05;0.63;;;;;;;17.59;51.83;100901.50;6284261;22;20019;-81
2021/01/12 09:53:58;;;;;;;4.40;0.90;;;;;;;17.59;51.96;100906.72;6331912;22;20023;-81
2021/01/12 09:57:19;;;;;;;3.35;0.80;;;;;;;17.63;51.83;100915.38;6239272;23;20016;-81
2021/01/12 09:59:54;;;;;;;2.58;0.70;;;;;;;17.69;51.70;100918.78;6214323;23;20463;-81
2021/01/12 10:02:36;;;;;;;1.80;0.70;;;;;;;17.69;51.70;100936.13;6213082;23;20016;-82
2021/01/12 10:05:11;;;;;;;1.38;0.70;;;;;;;17.69;51.60;100936.13;6211771;23;20072;-81
2021/01/12 10:10:58;;;;;;;3.10;0.90;;;;;;;17.66;51.63;100938.78;6240274;23;20073;-81
2021/01/12 10:13:24;;;;;;;1.83;0.70;;;;;;;17.66;51.85;100943.97;6213396;23;20001;-81
2021/01/12 10:15:49;;;;;;;1.35;0.52;;;;;;;17.66;51.20;100941.38;6214809;23;20012;-81
2021/01/12 10:18:15;;;;;;;1.92;0.80;;;;;;;17.67;51.42;100948.28;6238402;23;20004;-81
2021/01/12 10:21:00;;;;;;;1.05;0.70;;;;;;;17.67;51.50;100956.09;6241692;22;20015;-81
2021/01/12 10:23:27;;;;;;;2.83;0.90;;;;;;;17.63;51.59;100954.41;6273838;22;20007;-80
2021/01/12 10:25:53;;;;;;;1.48;0.60;;;;;;;17.62;51.69;100961.34;6303077;22;19991;-81
2021/01/12 10:30:56;;;;;;;1.52;0.60;;;;;;;17.60;51.60;100965.69;6366427;22;20073;-81
2021/01/12 10:35:58;;;;;;;1.85;0.80;;;;;;;17.63;51.44;100978.69;6296648;22;20010;-81
2021/01/12 10:50:27;;;;;;;3.08;0.77;;;;;;;17.81;54.63;101006.31;6334325;22;20002;-79
2021/01/12 10:58:12;;;;;;;2.20;1.30;;;;;;;17.73;54.57;101015.06;6351768;22;20019;-78
2021/01/12 13:42:19;;;;;;;2.03;0.80;;;;;;;17.63;55.60;101128.75;6307239;22;20041;-81
2021/01/12 14:27:56;;;;;;;4.53;0.70;;;;;;;17.75;55.43;101153.88;6347618;22;20069;-81
2021/01/12 14:30:27;;;;;;;1.30;0.60;;;;;;;17.77;55.61;101160.81;6330446;22;20015;-79
2021/01/12 14:39:33;;;;;;;3.70;0.70;;;;;;;17.82;55.45;101166.00;6299347;22;20041;-80
2021/01/12 14:42:05;;;;;;;2.10;0.77;;;;;;;17.78;55.42;101164.25;6301708;22;20027;-80
2021/01/12 15:01:43;;;;;;;2.07;0.70;;;;;;;17.61;56.72;101206.84;6309709;22;20449;-76
2021/01/12 15:12:14;;;;;;;1.85;0.82;;;;;;;17.47;56.63;101235.50;6300265;22;20019;-77
2021/01/12 15:14:54;;;;;;;2.90;0.80;;;;;;;17.45;56.16;101241.59;6301458;22;20481;-78
2021/01/12 15:17:41;;;;;;;1.95;0.63;;;;;;;17.41;59.35;101247.66;6233966;23;20027;-78
2021/01/12 15:20:07;;;;;;;1.55;0.75;;;;;;;17.42;56.65;101252.00;6265752;22;20011;-78
2021/01/12 15:22:59;;;;;;;1.85;0.68;;;;;;;17.41;56.86;101264.13;6262014;22;20081;-76
2021/01/12 15:25:29;;;;;;;1.70;0.80;;;;;;;17.37;57.33;101267.59;6310184;22;20017;-76
2021/01/12 17:06:26;;;;;;;1.63;0.68;;;;;;;17.63;55.91;101404.63;6332120;22;20077;-74
2021/01/12 17:19:15;;;;;;;1.75;0.60;;;;;;;17.71;55.78;101439.34;6275210;22;20387;-74
2021/01/12 17:21:47;;;;;;;2.05;0.80;;;;;;;17.69;55.85;101448.88;6176103;23;20348;-74
2021/01/12 17:24:25;;;;;;;1.08;0.60;;;;;;;17.68;56.10;101455.81;6171564;23;20016;-74
2021/01/12 17:26:59;;;;;;;3.03;0.90;;;;;;;17.69;56.61;101448.88;6222249;23;20008;-77
2021/01/12 17:29:27;;;;;;;3.67;0.93;;;;;;;17.71;56.51;101459.31;6198053;23;20124;-76
2021/01/12 17:37:07;;;;;;;9.90;2.30;;;;;;;17.46;60.45;101470.56;6305000;22;20023;-75
2021/01/12 17:39:37;;;;;;;10.45;1.90;;;;;;;17.36;59.87;101468.81;6286502;22;20070;-76
2021/01/12 17:44:39;;;;;;;10.65;1.90;;;;;;;17.16;60.36;101465.28;6305875;22;20030;-79
2021/01/12 17:47:06;;;;;;;9.10;1.90;;;;;;;17.11;60.62;101473.09;6244465;22;20015;-77
2021/01/12 17:49:32;;;;;;;9.07;1.58;;;;;;;17.09;60.30;101471.34;6255865;22;20431;-76
2021/01/12 17:52:02;;;;;;;5.95;1.48;;;;;;;17.05;60.05;101479.16;6254872;22;20003;-76
2021/01/12 17:54:29;;;;;;;8.07;1.63;;;;;;;17.04;60.13;101479.13;6265592;22;20006;-77
2021/01/12 17:57:38;;;;;;;6.97;1.38;;;;;;;17.02;60.36;101478.25;6245758;22;19991;-80
2021/01/12 18:00:12;;;;;;;7.95;1.42;;;;;;;17.02;59.92;101478.25;6291129;22;20086;-79
2021/01/12 18:03:04;;;;;;;5.50;1.35;;;;;;;17.00;59.85;101486.06;6291480;22;20011;-77
2021/01/12 18:05:30;;;;;;;6.22;1.65;;;;;;;16.99;59.43;101491.28;6238585;22;20081;-78
2021/01/12 18:08:18;;;;;;;6.47;1.70;;;;;;;16.96;59.21;101484.34;6206203;22;20011;-77
2021/01/12 18:10:48;;;;;;;6.38;1.27;;;;;;;16.95;59.07;101492.97;6254713;22;20000;-77
2021/01/12 18:15:50;;;;;;;4.43;1.42;;;;;;;16.93;58.39;101499.91;6265088;22;20027;-78
2021/01/12 18:18:16;;;;;;;4.80;1.50;;;;;;;16.94;58.47;101503.38;6227822;22;20008;-77
2021/01/12 18:23:13;;;;;;;5.13;1.20;;;;;;;16.91;58.64;101508.56;6311140;22;20023;-76
2021/01/12 18:25:46;;;;;;;4.55;1.30;;;;;;;16.91;58.59;101518.97;6319205;22;20011;-77
2021/01/12 18:28:29;;;;;;;4.65;1.10;;;;;;;16.90;58.73;101527.59;6344600;22;20027;-76
2021/01/12 18:33:31;;;;;;;3.75;1.00;;;;;;;16.89;58.41;101533.69;6304564;22;20023;-78
2021/01/12 18:35:58;;;;;;;2.92;1.08;;;;;;;16.89;58.72;101534.53;6285607;22;20011;-76
2021/01/12 18:38:31;;;;;;;2.65;1.02;;;;;;;16.88;58.72;101532.81;6257426;22;20097;-77
2021/01/12 18:46:08;;;;;;;2.45;1.00;;;;;;;16.88;58.88;101539.75;6251486;22;20020;-76
2021/01/12 18:53:46;;;;;;;3.08;1.10;;;;;;;16.87;59.01;101541.47;6294376;22;20062;-76
2021/01/12 18:58:49;;;;;;;5.95;1.25;;;;;;;16.84;59.02;101547.53;6285085;22;21191;-78
2021/01/12 19:01:18;;;;;;;6.53;1.40;;;;;;;16.86;59.07;101560.53;6288996;22;20022;-76
2021/01/12 19:03:45;;;;;;;3.42;0.98;;;;;;;16.86;59.15;101568.34;6287312;22;19995;-76
2021/01/12 19:06:53;;;;;;;3.38;1.10;;;;;;;16.85;59.10;101567.47;6285445;22;20325;-76
2021/01/12 19:19:49;;;;;;;3.40;1.10;;;;;;;16.87;59.03;101593.47;6319060;22;20011;-78
2021/01/12 19:22:53;;;;;;;2.08;0.90;;;;;;;16.86;58.93;101594.34;6301701;22;20040;-78
2021/01/12 19:25:52;;;;;;;2.90;1.20;;;;;;;16.84;59.19;101596.91;6265661;23;20012;-80
2021/01/12 19:28:29;;;;;;;5.32;1.40;;;;;;;16.84;59.30;101601.25;6216687;23;20262;-78
2021/01/12 19:30:55;;;;;;;3.38;1.20;;;;;;;16.83;59.10;101609.91;6228034;23;20011;-75
2021/01/12 19:33:30;;;;;;;2.00;0.90;;;;;;;16.82;58.86;101614.22;6205293;23;20011;-76
2021/01/12 19:36:09;;;;;;;4.13;1.20;;;;;;;16.81;59.35;101620.31;6228401;23;20004;-75
2021/01/12 19:38:38;;;;;;;2.95;1.00;;;;;;;16.82;58.97;101618.56;6228374;23;20015;-75
2021/01/12 19:41:07;;;;;;;3.88;1.10;;;;;;;16.81;58.66;101619.41;6251399;23;20012;-75
2021/01/12 19:43:36;;;;;;;3.05;1.05;;;;;;;16.81;59.24;101624.63;6225767;23;20012;-76
2021/01/12 19:46:02;;;;;;;5.50;1.20;;;;;;;16.80;59.00;101620.28;6242687;23;20019;-75
2021/01/12 19:48:33;;;;;;;3.25;1.13;;;;;;;16.80;59.01;101630.69;6268112;23;20027;-78
2021/01/12 19:51:00;;;;;;;4.13;1.20;;;;;;;16.80;59.48;101630.69;6241823;23;20004;-77